Time;durP1;ratioP1;P1;durP2;ratioP2;P2;SDS_P1;SDS_P2;PMS_P1;PMS_P2;Temp;Humidity;BMP_temperature;BMP_pressure;BME280_temperature;BME280_humidity;BME280_pressure;Samples;Min_cycle;Max_cycle;Signal;HPM_P1;HPM_P2
2022/03/30 00:01:00;;;;;;;17.57;11.47;;;;;;;;;;5051412;28;20206;-72
2022/03/30 00:03:29;;;;;;;18.77;11.97;;;;;;;;;;5052683;28;20576;-72
2022/03/30 00:05:57;;;;;;;19.23;11.93;;;;;;;;;;5049644;28;20645;-72
2022/03/30 00:08:26;;;;;;;16.83;11.93;;;;;;;;;;5049665;28;20224;-72
2022/03/30 00:10:57;;;;;;;17.97;11.67;;;;;;;;;;5040844;28;20251;-72
2022/03/30 00:13:26;;;;;;;17.93;11.33;;;;;;;;;;5051258;28;20289;-71
2022/03/30 00:15:55;;;;;;;17.67;11.10;;;;;;;;;;5050762;28;20217;-72
2022/03/30 00:18:25;;;;;;;18.53;11.27;;;;;;;;;;5050786;28;20303;-72
2022/03/30 00:20:53;;;;;;;23.93;11.60;;;;;;;;;;5047161;28;20257;-72
2022/03/30 00:23:21;;;;;;;22.17;12.33;;;;;;;;;;5052497;28;20249;-71
2022/03/30 00:25:50;;;;;;;20.90;12.97;;;;;;;;;;5050395;28;20709;-72
2022/03/30 00:28:18;;;;;;;20.80;12.80;;;;;;;;;;5050126;28;20275;-72
2022/03/30 00:30:46;;;;;;;20.03;12.20;;;;;;;;;;5051973;28;20321;-72
2022/03/30 00:33:15;;;;;;;25.17;13.20;;;;;;;;;;5052288;28;20254;-72
2022/03/30 00:35:46;;;;;;;22.33;13.30;;;;;;;;;;5051133;28;20276;-72
2022/03/30 00:38:14;;;;;;;18.97;12.77;;;;;;;;;;5051856;28;20232;-72
2022/03/30 00:40:43;;;;;;;21.57;13.63;;;;;;;;;;5048926;28;20198;-72
2022/03/30 00:43:12;;;;;;;20.83;12.60;;;;;;;;;;5045306;28;20206;-71
2022/03/30 00:45:41;;;;;;;17.43;12.60;;;;;;;;;;5052110;28;20692;-72
2022/03/30 00:48:09;;;;;;;22.33;12.87;;;;;;;;;;5051269;28;20232;-72
2022/03/30 00:50:38;;;;;;;21.20;11.90;;;;;;;;;;5050649;28;20209;-71
2022/03/30 00:53:08;;;;;;;17.40;10.90;;;;;;;;;;5052602;28;20249;-72
2022/03/30 00:55:37;;;;;;;19.90;11.87;;;;;;;;;;5050929;28;20200;-72
2022/03/30 00:58:07;;;;;;;22.20;12.67;;;;;;;;;;5051146;28;20223;-72
2022/03/30 01:00:36;;;;;;;21.10;13.20;;;;;;;;;;5050349;28;20206;-72
2022/03/30 01:03:04;;;;;;;21.80;12.30;;;;;;;;;;5051522;28;20259;-72
2022/03/30 01:05:34;;;;;;;19.03;12.57;;;;;;;;;;5049994;28;20210;-72
2022/03/30 01:08:02;;;;;;;24.10;12.53;;;;;;;;;;5052348;28;20221;-72
2022/03/30 01:10:32;;;;;;;23.13;13.10;;;;;;;;;;5055296;28;20262;-72
2022/03/30 01:13:01;;;;;;;23.30;13.57;;;;;;;;;;5054837;28;20206;-72
2022/03/30 01:15:29;;;;;;;22.10;13.23;;;;;;;;;;5055370;28;20200;-72
2022/03/30 01:17:57;;;;;;;22.10;12.93;;;;;;;;;;5053902;28;20229;-72
2022/03/30 01:20:26;;;;;;;21.40;12.83;;;;;;;;;;5053412;28;20201;-72
2022/03/30 01:23:02;;;;;;;23.70;13.13;;;;;;;;;;5055392;28;20231;-72
2022/03/30 01:25:32;;;;;;;23.87;13.13;;;;;;;;;;5053152;28;20711;-72
2022/03/30 01:28:01;;;;;;;22.63;13.33;;;;;;;;;;5054084;28;20230;-72
2022/03/30 01:33:15;;;;;;;19.10;12.47;;;;;;;;;;5054778;28;20204;-72
2022/03/30 01:35:43;;;;;;;18.77;12.13;;;;;;;;;;5053869;28;20217;-72
2022/03/30 01:38:13;;;;;;;17.53;12.23;;;;;;;;;;5052968;28;20231;-72
2022/03/30 01:40:42;;;;;;;20.60;11.63;;;;;;;;;;5051962;28;20250;-72
2022/03/30 01:43:10;;;;;;;19.23;12.20;;;;;;;;;;5054320;28;20614;-71
2022/03/30 01:45:39;;;;;;;21.50;11.70;;;;;;;;;;5052433;28;20199;-71
2022/03/30 01:48:07;;;;;;;19.37;11.53;;;;;;;;;;5052611;28;20234;-72
2022/03/30 01:50:36;;;;;;;20.43;12.30;;;;;;;;;;5052789;28;20205;-72
2022/03/30 01:53:05;;;;;;;20.10;12.37;;;;;;;;;;5053445;28;20210;-72
2022/03/30 01:55:35;;;;;;;19.50;11.93;;;;;;;;;;5053978;28;20210;-72
2022/03/30 01:58:05;;;;;;;20.20;11.93;;;;;;;;;;5054723;28;20286;-72
2022/03/30 02:00:33;;;;;;;20.93;11.60;;;;;;;;;;5051693;28;20211;-72
2022/03/30 02:03:02;;;;;;;21.13;11.83;;;;;;;;;;5055001;28;20628;-72
2022/03/30 02:05:32;;;;;;;19.80;11.10;;;;;;;;;;5048256;28;20226;-72
2022/03/30 02:08:00;;;;;;;18.70;11.23;;;;;;;;;;5054575;28;20215;-72
2022/03/30 02:10:29;;;;;;;20.40;11.20;;;;;;;;;;5052552;28;20251;-72
2022/03/30 02:12:59;;;;;;;23.53;11.27;;;;;;;;;;5043206;28;20203;-72
2022/03/30 02:15:29;;;;;;;20.90;10.67;;;;;;;;;;5052196;28;20213;-72
2022/03/30 02:17:57;;;;;;;19.73;11.57;;;;;;;;;;5052217;28;20741;-72
2022/03/30 02:20:26;;;;;;;20.40;11.07;;;;;;;;;;5047362;28;20212;-72
2022/03/30 02:22:54;;;;;;;20.83;12.10;;;;;;;;;;5053055;28;20276;-72
2022/03/30 02:25:23;;;;;;;19.80;12.00;;;;;;;;;;5053181;28;20254;-72
2022/03/30 02:27:51;;;;;;;21.50;11.53;;;;;;;;;;5054534;28;20220;-72
2022/03/30 02:30:21;;;;;;;17.17;10.83;;;;;;;;;;5052230;28;20260;-72
2022/03/30 02:32:49;;;;;;;25.47;12.00;;;;;;;;;;5052279;28;20203;-72
2022/03/30 02:35:19;;;;;;;21.17;12.03;;;;;;;;;;5053596;28;20272;-72
2022/03/30 02:37:49;;;;;;;21.70;11.57;;;;;;;;;;5054559;28;20273;-72
2022/03/30 02:40:17;;;;;;;20.33;11.73;;;;;;;;;;5052714;28;20208;-72
2022/03/30 02:42:45;;;;;;;18.10;11.60;;;;;;;;;;5054320;28;20201;-72
2022/03/30 02:45:14;;;;;;;18.30;11.30;;;;;;;;;;5052363;28;20213;-72
2022/03/30 02:50:30;;;;;;;22.57;11.83;;;;;;;;;;5048666;28;20199;-72
2022/03/30 02:52:58;;;;;;;21.07;11.63;;;;;;;;;;5054090;28;20205;-72
2022/03/30 02:55:27;;;;;;;23.17;12.30;;;;;;;;;;5050335;28;20206;-72
2022/03/30 02:57:55;;;;;;;19.47;12.20;;;;;;;;;;5053804;28;20236;-72
2022/03/30 03:00:23;;;;;;;18.53;11.50;;;;;;;;;;5044467;28;20207;-72
2022/03/30 03:02:53;;;;;;;23.50;12.07;;;;;;;;;;5051008;28;20250;-72
2022/03/30 03:05:22;;;;;;;22.10;12.07;;;;;;;;;;5052902;28;20256;-72
2022/03/30 03:07:50;;;;;;;21.60;11.73;;;;;;;;;;5038014;28;20215;-72
2022/03/30 03:10:18;;;;;;;17.60;11.60;;;;;;;;;;5050267;28;20611;-72
2022/03/30 03:12:47;;;;;;;20.83;12.40;;;;;;;;;;5052020;28;20219;-72
2022/03/30 03:15:15;;;;;;;23.10;12.00;;;;;;;;;;5048159;28;20206;-72
2022/03/30 03:17:44;;;;;;;19.80;12.60;;;;;;;;;;5047222;28;20258;-72
2022/03/30 03:20:14;;;;;;;18.00;12.47;;;;;;;;;;5052358;28;20204;-72
2022/03/30 03:22:43;;;;;;;24.57;12.37;;;;;;;;;;5052850;28;20207;-72
2022/03/30 03:25:12;;;;;;;18.87;12.83;;;;;;;;;;5051449;28;20202;-72
2022/03/30 03:27:41;;;;;;;20.53;12.73;;;;;;;;;;5053324;28;20216;-72
2022/03/30 03:30:10;;;;;;;23.43;13.47;;;;;;;;;;5050781;28;20261;-72
2022/03/30 03:32:39;;;;;;;19.10;12.70;;;;;;;;;;5050399;28;20204;-72
2022/03/30 03:35:09;;;;;;;18.93;12.47;;;;;;;;;;5047030;28;20260;-72
2022/03/30 03:37:38;;;;;;;20.13;12.97;;;;;;;;;;5039491;28;20223;-72
2022/03/30 03:40:08;;;;;;;20.43;12.97;;;;;;;;;;5053403;28;20205;-72
2022/03/30 03:42:38;;;;;;;23.20;13.50;;;;;;;;;;5050629;28;20210;-72
2022/03/30 03:45:07;;;;;;;20.47;13.13;;;;;;;;;;5053416;28;20263;-72
2022/03/30 03:47:35;;;;;;;20.40;13.63;;;;;;;;;;5051262;28;20225;-72
2022/03/30 03:50:04;;;;;;;21.93;13.00;;;;;;;;;;5051592;28;20630;-72
2022/03/30 03:52:32;;;;;;;23.03;14.30;;;;;;;;;;5041065;28;20196;-72
2022/03/30 03:55:03;;;;;;;21.40;13.60;;;;;;;;;;5053093;28;20206;-72
2022/03/30 03:57:33;;;;;;;19.40;12.90;;;;;;;;;;5051684;28;20297;-72
2022/03/30 04:00:02;;;;;;;23.43;14.27;;;;;;;;;;5051405;28;20206;-72
2022/03/30 04:02:30;;;;;;;24.20;14.20;;;;;;;;;;5052003;28;20205;-72
2022/03/30 04:04:59;;;;;;;23.97;13.27;;;;;;;;;;5052522;28;20274;-72
2022/03/30 04:07:27;;;;;;;23.37;13.73;;;;;;;;;;5051768;28;20273;-72
2022/03/30 04:09:56;;;;;;;24.33;13.40;;;;;;;;;;5050022;28;20543;-72
2022/03/30 04:12:26;;;;;;;21.50;13.17;;;;;;;;;;5050184;28;20209;-72
2022/03/30 04:14:55;;;;;;;25.43;13.87;;;;;;;;;;5042073;28;20214;-72
2022/03/30 04:17:23;;;;;;;20.37;12.83;;;;;;;;;;5051516;28;20229;-72
2022/03/30 04:19:51;;;;;;;22.30;13.53;;;;;;;;;;5049917;28;20609;-72
2022/03/30 04:22:20;;;;;;;20.40;12.93;;;;;;;;;;5048943;28;20199;-72
2022/03/30 04:24:49;;;;;;;20.47;13.37;;;;;;;;;;5051451;28;20209;-72
2022/03/30 04:27:17;;;;;;;21.20;13.40;;;;;;;;;;5052490;28;20713;-72
2022/03/30 04:29:47;;;;;;;22.30;13.97;;;;;;;;;;5053694;28;20271;-72
2022/03/30 04:32:15;;;;;;;22.93;14.10;;;;;;;;;;5047715;28;20204;-72
2022/03/30 04:34:44;;;;;;;23.53;13.27;;;;;;;;;;5048345;28;20284;-72
2022/03/30 04:37:18;;;;;;;21.13;12.87;;;;;;;;;;5047441;28;20227;-72
2022/03/30 04:39:46;;;;;;;22.07;13.23;;;;;;;;;;5050607;28;20684;-72
2022/03/30 04:42:14;;;;;;;22.77;13.10;;;;;;;;;;5050736;28;20283;-72
2022/03/30 04:44:43;;;;;;;18.37;12.80;;;;;;;;;;5052012;28;20205;-72
2022/03/30 04:47:13;;;;;;;19.73;13.07;;;;;;;;;;5053443;28;20694;-72
2022/03/30 04:49:41;;;;;;;21.47;13.67;;;;;;;;;;5051917;28;20205;-72
2022/03/30 04:52:10;;;;;;;24.73;13.53;;;;;;;;;;5052354;28;20644;-72
2022/03/30 04:54:39;;;;;;;20.57;13.30;;;;;;;;;;5053362;28;20195;-72
2022/03/30 04:57:07;;;;;;;26.37;15.00;;;;;;;;;;5054689;28;20224;-72
2022/03/30 04:59:36;;;;;;;23.90;13.67;;;;;;;;;;5056391;28;20774;-72
2022/03/30 05:02:04;;;;;;;24.33;14.50;;;;;;;;;;5049757;28;20703;-72
2022/03/30 05:04:34;;;;;;;24.13;13.83;;;;;;;;;;5051181;28;20207;-72
2022/03/30 05:07:03;;;;;;;20.20;13.00;;;;;;;;;;5052566;28;20223;-72
2022/03/30 05:09:31;;;;;;;23.57;13.50;;;;;;;;;;5051721;28;20205;-72
2022/03/30 05:11:59;;;;;;;22.73;13.63;;;;;;;;;;5054569;28;20269;-72
2022/03/30 05:14:28;;;;;;;23.37;14.50;;;;;;;;;;5053916;28;20205;-72
2022/03/30 05:16:56;;;;;;;24.90;14.63;;;;;;;;;;5053452;28;20225;-72
2022/03/30 05:19:25;;;;;;;20.17;14.43;;;;;;;;;;5055940;28;20224;-72
2022/03/30 05:21:55;;;;;;;24.03;14.20;;;;;;;;;;5056125;28;20265;-72
2022/03/30 05:24:23;;;;;;;24.10;15.30;;;;;;;;;;5055590;28;20200;-72
2022/03/30 05:26:53;;;;;;;24.30;14.33;;;;;;;;;;5053374;28;20266;-72
2022/03/30 05:29:21;;;;;;;22.40;14.53;;;;;;;;;;5053786;28;20205;-72
2022/03/30 05:31:50;;;;;;;22.73;13.83;;;;;;;;;;5052591;28;20212;-72
2022/03/30 05:34:41;;;;;;;23.63;15.07;;;;;;;;;;5054993;28;20236;-72
2022/03/30 05:37:11;;;;;;;21.60;14.47;;;;;;;;;;5051500;28;20225;-72
2022/03/30 05:39:41;;;;;;;23.87;15.33;;;;;;;;;;5053457;28;20237;-72
2022/03/30 05:42:10;;;;;;;21.47;15.10;;;;;;;;;;5053091;28;20268;-72
2022/03/30 05:44:46;;;;;;;22.13;15.33;;;;;;;;;;5052242;28;20214;-72
2022/03/30 05:47:15;;;;;;;21.27;14.73;;;;;;;;;;5055218;28;20254;-72
2022/03/30 05:49:44;;;;;;;29.80;15.10;;;;;;;;;;5055536;28;20202;-72
2022/03/30 05:52:13;;;;;;;24.03;15.50;;;;;;;;;;5055449;28;20206;-72
2022/03/30 05:54:42;;;;;;;21.87;15.30;;;;;;;;;;5054421;28;20204;-72
2022/03/30 05:57:10;;;;;;;26.17;15.90;;;;;;;;;;5053571;28;20218;-72
2022/03/30 05:59:40;;;;;;;31.57;15.47;;;;;;;;;;5055258;28;20234;-72
2022/03/30 06:02:10;;;;;;;27.10;15.53;;;;;;;;;;5054877;28;20203;-72
2022/03/30 06:04:41;;;;;;;22.43;15.00;;;;;;;;;;5055490;28;20214;-72
2022/03/30 06:07:10;;;;;;;29.17;14.37;;;;;;;;;;5054701;28;20224;-72
2022/03/30 06:09:39;;;;;;;25.83;15.10;;;;;;;;;;5055373;28;20595;-72
2022/03/30 06:12:14;;;;;;;22.43;14.13;;;;;;;;;;5054650;28;20198;-72
2022/03/30 06:14:43;;;;;;;24.47;14.77;;;;;;;;;;5054883;28;20260;-72
2022/03/30 06:17:12;;;;;;;26.40;14.30;;;;;;;;;;5055068;28;20290;-72
2022/03/30 06:19:41;;;;;;;22.27;14.43;;;;;;;;;;5054894;28;20238;-72
2022/03/30 06:22:09;;;;;;;24.83;13.77;;;;;;;;;;5055284;28;20259;-72
2022/03/30 06:24:40;;;;;;;18.93;13.97;;;;;;;;;;5054733;28;20229;-72
2022/03/30 06:27:09;;;;;;;24.03;14.77;;;;;;;;;;5054508;28;20234;-72
2022/03/30 06:29:38;;;;;;;25.07;15.07;;;;;;;;;;5054512;28;20203;-72
2022/03/30 06:32:07;;;;;;;25.67;15.57;;;;;;;;;;5039003;28;20226;-72
2022/03/30 06:34:36;;;;;;;23.50;15.50;;;;;;;;;;5054671;28;20215;-72
2022/03/30 06:37:06;;;;;;;25.93;14.97;;;;;;;;;;5038422;28;20225;-72
2022/03/30 06:39:34;;;;;;;23.37;15.23;;;;;;;;;;5054472;28;20759;-72
2022/03/30 06:42:10;;;;;;;21.60;14.33;;;;;;;;;;5054391;28;20264;-72
2022/03/30 06:44:39;;;;;;;22.27;14.30;;;;;;;;;;5054463;28;20214;-72
2022/03/30 06:47:07;;;;;;;24.83;14.70;;;;;;;;;;5054233;28;20218;-72
2022/03/30 06:49:36;;;;;;;24.43;13.77;;;;;;;;;;5053010;28;20704;-72
2022/03/30 06:52:05;;;;;;;26.73;13.50;;;;;;;;;;5054155;28;20223;-72
2022/03/30 06:54:35;;;;;;;17.90;12.97;;;;;;;;;;5053705;28;20201;-72
2022/03/30 06:57:04;;;;;;;18.03;11.83;;;;;;;;;;5042756;28;20273;-72
2022/03/30 06:59:33;;;;;;;16.17;10.63;;;;;;;;;;5040662;28;20228;-72
2022/03/30 07:02:02;;;;;;;14.93;10.17;;;;;;;;;;5046267;28;20201;-72
2022/03/30 07:04:31;;;;;;;19.77;9.67;;;;;;;;;;5053546;28;20670;-72
2022/03/30 07:12:32;;;;;;;14.73;8.77;;;;;;;;;;5054100;28;20211;-72
2022/03/30 07:15:01;;;;;;;11.63;8.13;;;;;;;;;;5053599;28;20215;-72
2022/03/30 07:17:30;;;;;;;16.10;8.47;;;;;;;;;;5053977;28;20222;-72
2022/03/30 07:19:59;;;;;;;14.67;7.80;;;;;;;;;;5053634;28;20220;-72
2022/03/30 07:22:27;;;;;;;15.37;8.07;;;;;;;;;;5053802;28;20221;-72
2022/03/30 07:24:56;;;;;;;15.40;8.00;;;;;;;;;;5053491;28;20210;-72
2022/03/30 07:27:24;;;;;;;15.73;7.60;;;;;;;;;;5053666;28;20596;-72
2022/03/30 07:29:52;;;;;;;12.67;6.90;;;;;;;;;;5053502;28;20249;-72
2022/03/30 07:32:23;;;;;;;16.23;7.37;;;;;;;;;;5053878;28;20207;-72
2022/03/30 07:34:53;;;;;;;12.50;7.37;;;;;;;;;;5053165;28;20620;-72
2022/03/30 07:37:21;;;;;;;15.00;6.57;;;;;;;;;;5054064;28;20219;-72
2022/03/30 07:39:53;;;;;;;11.63;5.83;;;;;;;;;;5053351;28;20219;-72
2022/03/30 07:42:21;;;;;;;13.13;5.50;;;;;;;;;;5053492;28;20207;-72
2022/03/30 07:44:49;;;;;;;11.17;5.90;;;;;;;;;;5053238;28;20203;-72
2022/03/30 07:47:18;;;;;;;13.50;6.20;;;;;;;;;;5052562;28;20755;-72
2022/03/30 07:49:48;;;;;;;9.03;4.80;;;;;;;;;;5053262;28;20685;-72
2022/03/30 07:52:17;;;;;;;12.60;4.30;;;;;;;;;;5053277;28;20641;-72
2022/03/30 07:54:45;;;;;;;8.50;3.67;;;;;;;;;;5053303;28;20206;-72
2022/03/30 07:57:14;;;;;;;8.97;3.47;;;;;;;;;;5053098;28;20231;-72
2022/03/30 07:59:42;;;;;;;9.97;4.47;;;;;;;;;;5053060;28;20235;-72
2022/03/30 08:02:13;;;;;;;6.53;4.20;;;;;;;;;;5049670;28;20204;-72
2022/03/30 08:04:41;;;;;;;11.10;4.53;;;;;;;;;;5053387;28;20187;-72
2022/03/30 08:07:11;;;;;;;9.10;3.63;;;;;;;;;;5052735;28;20310;-72
2022/03/30 08:09:39;;;;;;;9.23;3.90;;;;;;;;;;5052935;28;20257;-72
2022/03/30 08:12:08;;;;;;;6.70;3.93;;;;;;;;;;5052563;28;20203;-72
2022/03/30 08:14:37;;;;;;;11.83;3.37;;;;;;;;;;5052494;28;20199;-73
2022/03/30 08:17:05;;;;;;;19.00;4.27;;;;;;;;;;5052996;28;20312;-72
2022/03/30 08:19:34;;;;;;;8.90;3.60;;;;;;;;;;5051182;28;20328;-72
2022/03/30 08:24:49;;;;;;;8.47;3.57;;;;;;;;;;5052394;28;20199;-72
2022/03/30 08:27:19;;;;;;;10.13;3.93;;;;;;;;;;5052044;28;20239;-72
2022/03/30 08:29:48;;;;;;;9.97;3.60;;;;;;;;;;5052402;28;20667;-73
2022/03/30 08:32:18;;;;;;;7.57;3.30;;;;;;;;;;5052232;28;20242;-72
2022/03/30 08:34:47;;;;;;;8.40;3.57;;;;;;;;;;5052511;28;20207;-72
2022/03/30 08:37:15;;;;;;;7.80;3.73;;;;;;;;;;5052668;28;20570;-72
2022/03/30 08:39:44;;;;;;;9.20;2.87;;;;;;;;;;5052906;28;20203;-72
2022/03/30 08:42:15;;;;;;;7.23;3.43;;;;;;;;;;5052272;28;20195;-72
2022/03/30 08:44:46;;;;;;;9.70;3.37;;;;;;;;;;5052295;28;20203;-72
2022/03/30 08:47:15;;;;;;;9.90;3.17;;;;;;;;;;5052266;28;20272;-72
2022/03/30 08:49:47;;;;;;;10.60;3.10;;;;;;;;;;5052660;28;20242;-72
2022/03/30 08:52:16;;;;;;;8.70;2.80;;;;;;;;;;5052724;28;20555;-72
2022/03/30 08:54:45;;;;;;;11.83;2.83;;;;;;;;;;5051865;28;20199;-72
2022/03/30 08:57:15;;;;;;;6.20;2.30;;;;;;;;;;5051697;28;20596;-72
2022/03/30 08:59:57;;;;;;;6.43;3.00;;;;;;;;;;5032743;28;20260;-72
2022/03/30 09:02:33;;;;;;;8.40;3.40;;;;;;;;;;5045319;28;20207;-72
2022/03/30 09:05:12;;;;;;;7.73;2.77;;;;;;;;;;5052256;28;20697;-73
2022/03/30 09:07:41;;;;;;;6.07;3.03;;;;;;;;;;5049115;28;20214;-72
2022/03/30 09:10:16;;;;;;;7.77;3.17;;;;;;;;;;5045004;28;20211;-73
2022/03/30 09:12:50;;;;;;;8.20;3.40;;;;;;;;;;5052055;28;20212;-72
2022/03/30 09:15:20;;;;;;;8.43;3.07;;;;;;;;;;5051196;28;20202;-73
2022/03/30 09:17:58;;;;;;;7.53;2.77;;;;;;;;;;5052155;28;20230;-72
2022/03/30 09:20:35;;;;;;;6.17;2.87;;;;;;;;;;5052508;28;20246;-73
2022/03/30 09:23:04;;;;;;;8.23;3.07;;;;;;;;;;5051263;28;20571;-72
2022/03/30 09:25:50;;;;;;;7.53;3.10;;;;;;;;;;5052370;28;20724;-72
2022/03/30 09:28:21;;;;;;;12.43;3.03;;;;;;;;;;5051791;28;20219;-72
2022/03/30 09:30:50;;;;;;;6.03;2.70;;;;;;;;;;5054404;28;20585;-72
2022/03/30 09:33:19;;;;;;;7.00;2.97;;;;;;;;;;5055537;28;20275;-72
2022/03/30 09:35:47;;;;;;;9.43;2.70;;;;;;;;;;5055723;28;20230;-73
2022/03/30 09:38:17;;;;;;;5.80;2.53;;;;;;;;;;5054603;28;20242;-72
2022/03/30 09:40:47;;;;;;;10.83;3.13;;;;;;;;;;5055272;28;20219;-72
2022/03/30 09:43:22;;;;;;;6.70;2.77;;;;;;;;;;5055151;28;20195;-72
2022/03/30 09:45:51;;;;;;;8.80;3.00;;;;;;;;;;5055584;28;20209;-73
2022/03/30 09:48:21;;;;;;;9.40;3.20;;;;;;;;;;5054499;28;20223;-72
2022/03/30 09:50:51;;;;;;;7.50;3.10;;;;;;;;;;5055418;28;20210;-72
2022/03/30 09:53:20;;;;;;;5.97;2.80;;;;;;;;;;5049130;28;20671;-72
2022/03/30 09:55:55;;;;;;;8.63;3.00;;;;;;;;;;5044822;28;20206;-72
2022/03/30 09:58:26;;;;;;;7.77;2.87;;;;;;;;;;5054973;28;20256;-73
2022/03/30 10:01:05;;;;;;;7.53;2.80;;;;;;;;;;5055196;28;20255;-72
2022/03/30 10:03:44;;;;;;;8.13;3.20;;;;;;;;;;5053842;28;20206;-72
2022/03/30 10:06:14;;;;;;;6.50;2.63;;;;;;;;;;5045569;28;20198;-72
2022/03/30 10:08:43;;;;;;;7.83;2.93;;;;;;;;;;5054567;28;20329;-72
2022/03/30 10:11:15;;;;;;;8.70;3.10;;;;;;;;;;5054976;28;20195;-72
2022/03/30 10:13:46;;;;;;;8.20;3.40;;;;;;;;;;5054861;28;20203;-72
2022/03/30 10:16:35;;;;;;;6.97;3.37;;;;;;;;;;5055097;28;20223;-72
2022/03/30 10:19:04;;;;;;;7.37;2.70;;;;;;;;;;5054849;28;20214;-72
2022/03/30 10:21:39;;;;;;;9.47;3.00;;;;;;;;;;5053919;28;20215;-72
2022/03/30 10:24:18;;;;;;;9.53;3.37;;;;;;;;;;5054366;28;20259;-72
2022/03/30 10:27:00;;;;;;;7.97;3.17;;;;;;;;;;5054342;28;20694;-72
2022/03/30 10:29:31;;;;;;;8.53;3.20;;;;;;;;;;5044314;28;20211;-72
2022/03/30 10:32:18;;;;;;;9.10;3.77;;;;;;;;;;5054659;28;20643;-72
2022/03/30 10:34:51;;;;;;;10.97;3.20;;;;;;;;;;5040909;28;20203;-72
2022/03/30 10:37:26;;;;;;;5.77;2.73;;;;;;;;;;5054266;28;20219;-72
2022/03/30 10:39:55;;;;;;;15.57;3.47;;;;;;;;;;5053681;28;20202;-72
2022/03/30 10:42:24;;;;;;;6.77;3.00;;;;;;;;;;5053321;28;20219;-72
2022/03/30 10:44:57;;;;;;;7.23;2.67;;;;;;;;;;5054219;28;20206;-72
2022/03/30 10:47:27;;;;;;;5.60;2.80;;;;;;;;;;5054157;28;20223;-72
2022/03/30 10:49:57;;;;;;;6.50;2.80;;;;;;;;;;5053815;28;20195;-72
2022/03/30 10:52:31;;;;;;;6.77;2.70;;;;;;;;;;5054065;28;20199;-72
2022/03/30 10:55:19;;;;;;;6.33;2.80;;;;;;;;;;5053356;28;20209;-72
2022/03/30 10:57:50;;;;;;;5.43;2.87;;;;;;;;;;5053677;28;20227;-73
2022/03/30 11:00:21;;;;;;;7.07;2.57;;;;;;;;;;5053876;28;20210;-72
2022/03/30 11:02:50;;;;;;;5.30;2.37;;;;;;;;;;5053967;28;20639;-73
2022/03/30 11:05:28;;;;;;;6.70;2.77;;;;;;;;;;5053491;28;20195;-72
2022/03/30 11:07:56;;;;;;;7.63;3.00;;;;;;;;;;5053599;28;20230;-72
2022/03/30 11:10:29;;;;;;;5.73;2.90;;;;;;;;;;5053678;28;20564;-72
2022/03/30 11:13:02;;;;;;;9.00;2.77;;;;;;;;;;5053736;28;20612;-72
2022/03/30 11:15:32;;;;;;;4.93;2.87;;;;;;;;;;5053332;28;20202;-72
2022/03/30 11:18:18;;;;;;;6.73;2.93;;;;;;;;;;5053714;28;20272;-73
2022/03/30 11:21:05;;;;;;;6.13;2.97;;;;;;;;;;5053576;28;20199;-72
2022/03/30 11:23:34;;;;;;;8.37;3.10;;;;;;;;;;5039521;28;20210;-72
2022/03/30 11:26:02;;;;;;;7.07;2.77;;;;;;;;;;5053766;28;20286;-72
2022/03/30 11:28:36;;;;;;;4.63;2.73;;;;;;;;;;5053975;28;20245;-72
2022/03/30 11:31:19;;;;;;;6.60;2.70;;;;;;;;;;5053071;28;20199;-72
2022/03/30 11:34:09;;;;;;;6.37;2.97;;;;;;;;;;5052937;28;20237;-72
2022/03/30 11:36:38;;;;;;;6.87;2.87;;;;;;;;;;5049550;28;20223;-72
2022/03/30 11:39:07;;;;;;;7.10;2.53;;;;;;;;;;5053368;28;20230;-73
2022/03/30 11:41:36;;;;;;;6.27;2.97;;;;;;;;;;5053335;28;20195;-73
2022/03/30 11:46:54;;;;;;;5.40;2.70;;;;;;;;;;5053362;28;20645;-73
2022/03/30 11:49:22;;;;;;;5.00;2.53;;;;;;;;;;5053319;28;20621;-73
2022/03/30 11:51:52;;;;;;;6.50;2.47;;;;;;;;;;5053080;28;20200;-73
2022/03/30 11:54:21;;;;;;;7.67;2.70;;;;;;;;;;5051795;28;20286;-73
2022/03/30 11:56:52;;;;;;;5.53;2.50;;;;;;;;;;5053472;28;20590;-73
2022/03/30 11:59:21;;;;;;;5.03;2.37;;;;;;;;;;5052878;28;20247;-73
2022/03/30 12:01:52;;;;;;;6.17;2.60;;;;;;;;;;5052270;28;20222;-74
2022/03/30 12:04:22;;;;;;;7.23;2.70;;;;;;;;;;5052906;28;20225;-73
2022/03/30 12:06:51;;;;;;;4.97;2.80;;;;;;;;;;5052273;28;20253;-73
2022/03/30 12:09:20;;;;;;;8.00;2.60;;;;;;;;;;5048474;28;20210;-73
2022/03/30 12:11:49;;;;;;;6.40;2.50;;;;;;;;;;5052264;28;20202;-73
2022/03/30 12:14:25;;;;;;;5.30;2.93;;;;;;;;;;5051664;28;20621;-73
2022/03/30 12:16:54;;;;;;;8.37;2.60;;;;;;;;;;5047906;28;20223;-73
2022/03/30 12:19:23;;;;;;;6.93;2.90;;;;;;;;;;5049083;28;20211;-74
2022/03/30 12:21:52;;;;;;;8.60;2.90;;;;;;;;;;5047145;28;20288;-73
2022/03/30 12:24:22;;;;;;;6.50;2.50;;;;;;;;;;5050431;28;20203;-74
2022/03/30 12:26:51;;;;;;;7.23;3.10;;;;;;;;;;5049600;28;20250;-74
2022/03/30 12:29:21;;;;;;;5.17;2.83;;;;;;;;;;5050341;28;20246;-73
2022/03/30 12:31:52;;;;;;;7.37;2.70;;;;;;;;;;5049716;28;20211;-73
2022/03/30 12:34:23;;;;;;;8.67;2.93;;;;;;;;;;5050082;28;20210;-74
2022/03/30 12:36:54;;;;;;;9.07;2.80;;;;;;;;;;5046135;28;20580;-73
2022/03/30 12:39:24;;;;;;;10.33;2.77;;;;;;;;;;5046926;28;20239;-73
2022/03/30 12:41:59;;;;;;;5.77;2.70;;;;;;;;;;5049825;28;20210;-74
2022/03/30 12:44:29;;;;;;;6.70;2.97;;;;;;;;;;5051135;28;20241;-73
2022/03/30 12:46:58;;;;;;;7.27;2.80;;;;;;;;;;5052261;28;20231;-74
2022/03/30 12:49:33;;;;;;;6.80;3.00;;;;;;;;;;5049577;28;20302;-74
2022/03/30 12:52:10;;;;;;;7.83;2.93;;;;;;;;;;5051440;28;20207;-73
2022/03/30 12:54:39;;;;;;;8.87;3.20;;;;;;;;;;5051611;28;20628;-73
2022/03/30 12:57:08;;;;;;;5.43;3.20;;;;;;;;;;5052499;28;20234;-74
2022/03/30 12:59:38;;;;;;;6.70;3.30;;;;;;;;;;5051052;28;20211;-73
2022/03/30 13:02:20;;;;;;;7.60;3.20;;;;;;;;;;5051685;28;20233;-73
2022/03/30 13:04:54;;;;;;;5.60;3.10;;;;;;;;;;5052692;28;20214;-73
2022/03/30 13:07:27;;;;;;;11.70;3.47;;;;;;;;;;5056123;28;20223;-73
2022/03/30 13:10:03;;;;;;;8.27;3.53;;;;;;;;;;5055443;28;20207;-74
2022/03/30 13:12:32;;;;;;;7.10;3.30;;;;;;;;;;5056044;28;20286;-74
2022/03/30 13:15:04;;;;;;;8.57;3.20;;;;;;;;;;5056090;28;20215;-73
2022/03/30 13:17:33;;;;;;;6.30;3.10;;;;;;;;;;5054814;28;20660;-74
2022/03/30 13:20:02;;;;;;;9.10;3.53;;;;;;;;;;5051321;28;20203;-74
2022/03/30 13:22:32;;;;;;;9.20;3.00;;;;;;;;;;5051209;28;20214;-73
2022/03/30 13:25:01;;;;;;;7.53;3.30;;;;;;;;;;5049981;28;20327;-74
2022/03/30 13:27:41;;;;;;;7.00;3.23;;;;;;;;;;5049690;28;20625;-74
2022/03/30 13:30:10;;;;;;;7.70;3.10;;;;;;;;;;5052190;28;20203;-73
2022/03/30 13:32:38;;;;;;;8.77;3.67;;;;;;;;;;5053262;28;20203;-73
2022/03/30 13:35:08;;;;;;;13.00;3.57;;;;;;;;;;5053597;28;20215;-74
2022/03/30 13:37:38;;;;;;;7.33;3.57;;;;;;;;;;5050990;28;20223;-73
2022/03/30 13:40:08;;;;;;;6.50;3.43;;;;;;;;;;5051710;28;20700;-74
2022/03/30 13:42:36;;;;;;;9.23;3.10;;;;;;;;;;5050020;28;20672;-74
2022/03/30 13:45:06;;;;;;;9.53;3.97;;;;;;;;;;5053548;28;20195;-73
2022/03/30 13:47:34;;;;;;;8.47;3.73;;;;;;;;;;5048942;28;20253;-72
2022/03/30 13:50:03;;;;;;;7.67;3.70;;;;;;;;;;5053555;28;20218;-73
2022/03/30 13:52:34;;;;;;;6.23;3.10;;;;;;;;;;5053762;28;20230;-73
2022/03/30 13:55:04;;;;;;;6.13;3.30;;;;;;;;;;5051707;28;20199;-73
2022/03/30 13:57:33;;;;;;;5.97;3.50;;;;;;;;;;5053094;28;20281;-73
2022/03/30 14:00:02;;;;;;;9.30;3.80;;;;;;;;;;5049306;28;20202;-73
2022/03/30 14:02:31;;;;;;;5.10;3.40;;;;;;;;;;5049808;28;20211;-74
2022/03/30 14:04:59;;;;;;;6.80;3.80;;;;;;;;;;5052326;28;20223;-73
2022/03/30 14:07:29;;;;;;;6.70;4.13;;;;;;;;;;5052401;28;20223;-73
2022/03/30 14:09:57;;;;;;;6.47;3.70;;;;;;;;;;5049648;28;20245;-74
2022/03/30 14:12:28;;;;;;;7.13;3.97;;;;;;;;;;5047238;28;20655;-74
2022/03/30 14:14:57;;;;;;;5.67;3.90;;;;;;;;;;5050692;28;20280;-73
2022/03/30 14:17:25;;;;;;;8.50;3.97;;;;;;;;;;5050644;28;20223;-74
2022/03/30 14:19:54;;;;;;;7.20;4.03;;;;;;;;;;5052240;28;20215;-73
2022/03/30 14:22:22;;;;;;;8.13;4.27;;;;;;;;;;5049919;28;20551;-73
2022/03/30 14:24:51;;;;;;;8.23;4.10;;;;;;;;;;5052207;28;20226;-74
2022/03/30 14:27:21;;;;;;;7.03;3.60;;;;;;;;;;5049011;28;20229;-73
2022/03/30 14:29:52;;;;;;;7.77;4.30;;;;;;;;;;5049556;28;20203;-73
2022/03/30 14:32:22;;;;;;;5.73;3.87;;;;;;;;;;5048054;28;20202;-73
2022/03/30 14:34:52;;;;;;;7.63;4.43;;;;;;;;;;5048507;28;20217;-73
2022/03/30 14:37:21;;;;;;;5.20;3.63;;;;;;;;;;5048822;28;20237;-73
2022/03/30 14:39:50;;;;;;;6.47;4.20;;;;;;;;;;5049992;28;20249;-73
2022/03/30 14:42:20;;;;;;;6.60;3.93;;;;;;;;;;5049424;28;20207;-73
2022/03/30 14:44:48;;;;;;;7.40;4.43;;;;;;;;;;5047113;28;20219;-73
2022/03/30 14:47:18;;;;;;;5.10;4.60;;;;;;;;;;5052306;28;20223;-73
2022/03/30 14:49:46;;;;;;;8.50;5.00;;;;;;;;;;5054186;28;20552;-73
2022/03/30 14:52:15;;;;;;;7.63;4.77;;;;;;;;;;5052287;28;20267;-73
2022/03/30 14:54:44;;;;;;;8.73;4.20;;;;;;;;;;5053566;28;20199;-73
2022/03/30 14:57:13;;;;;;;6.83;4.40;;;;;;;;;;5053126;28;20698;-73
2022/03/30 14:59:41;;;;;;;7.33;4.10;;;;;;;;;;5052513;28;20229;-73
2022/03/30 15:02:10;;;;;;;6.63;4.20;;;;;;;;;;5054012;28;20245;-73